createdAt,value
2019-04-04T00:00:32.857Z,10.90
2019-04-04T00:03:02.230Z,16.57
2019-04-04T00:05:31.330Z,12.47
2019-04-04T00:08:00.635Z,17.00
2019-04-04T00:10:29.692Z,14.27
2019-04-04T00:12:58.795Z,14.07
2019-04-04T00:15:27.871Z,13.17
2019-04-04T00:17:57.072Z,17.17
2019-04-04T00:20:26.456Z,12.27
2019-04-04T00:22:55.757Z,13.93
2019-04-04T00:25:24.768Z,14.40
2019-04-04T00:27:53.883Z,19.17
2019-04-04T00:30:23.057Z,16.20
2019-04-04T00:32:52.887Z,20.10
2019-04-04T00:35:22.910Z,17.60
2019-04-04T00:37:51.976Z,16.83
2019-04-04T00:40:21.067Z,18.63
2019-04-04T00:42:50.281Z,15.73
2019-04-04T00:45:19.664Z,17.43
2019-04-04T00:47:48.805Z,18.40
2019-04-04T00:50:18.189Z,20.43
2019-04-04T00:52:47.358Z,17.50
2019-04-04T00:55:16.891Z,16.20
2019-04-04T00:57:46.053Z,15.93
2019-04-04T01:00:15.311Z,18.03
2019-04-04T01:02:44.576Z,19.27
2019-04-04T01:05:13.546Z,17.47
2019-04-04T01:07:42.990Z,20.90
2019-04-04T01:10:12.171Z,18.83
2019-04-04T01:12:41.334Z,17.87
2019-04-04T01:15:10.666Z,22.80
2019-04-04T01:17:39.754Z,19.43
2019-04-04T01:20:08.930Z,17.47
2019-04-04T01:22:38.024Z,18.50
2019-04-04T01:25:07.515Z,19.00
2019-04-04T01:27:36.947Z,19.60
2019-04-04T01:30:06.873Z,22.20
2019-04-04T01:32:36.349Z,19.97
2019-04-04T01:35:05.743Z,19.00
2019-04-04T01:37:34.945Z,18.93
2019-04-04T01:40:04.579Z,18.83
2019-04-04T01:42:33.745Z,16.77
2019-04-04T01:45:02.975Z,21.50
2019-04-04T01:47:32.889Z,19.30
2019-04-04T01:50:02.050Z,18.90
2019-04-04T01:52:31.244Z,18.70
2019-04-04T01:55:02.964Z,19.50
2019-04-04T01:57:31.777Z,20.60
2019-04-04T02:00:00.922Z,19.70
2019-04-04T02:02:30.084Z,21.80
2019-04-04T02:04:59.115Z,21.47
2019-04-04T02:07:29.747Z,22.17
2019-04-04T02:09:59.001Z,18.80
2019-04-04T02:12:28.083Z,20.43
2019-04-04T02:14:57.387Z,21.03
2019-04-04T02:17:26.421Z,22.70
2019-04-04T02:19:56.256Z,22.00
2019-04-04T02:22:25.931Z,21.17
2019-04-04T02:24:55.053Z,22.57
2019-04-04T02:27:24.095Z,18.93
2019-04-04T02:29:53.116Z,18.97
2019-04-04T02:32:26.133Z,21.80
2019-04-04T02:34:53.036Z,22.60
2019-04-04T02:37:22.178Z,23.30
2019-04-04T02:39:51.237Z,23.90
2019-04-04T02:42:22.308Z,23.67
2019-04-04T02:44:51.788Z,22.90
2019-04-04T02:47:21.274Z,23.80
2019-04-04T02:49:50.677Z,21.40
2019-04-04T02:52:19.845Z,24.90
2019-04-04T02:54:48.968Z,21.50
2019-04-04T02:57:18.370Z,24.63
2019-04-04T02:59:47.530Z,19.93
2019-04-04T03:02:16.747Z,23.50
2019-04-04T03:04:46.846Z,25.87
2019-04-04T03:07:16.362Z,26.80
2019-04-04T03:09:45.881Z,30.23
2019-04-04T03:12:15.307Z,28.43
2019-04-04T03:14:44.507Z,25.53
2019-04-04T03:17:13.839Z,30.63
2019-04-04T03:19:43.794Z,31.20
2019-04-04T03:22:13.540Z,30.70
2019-04-04T03:24:44.908Z,26.23
2019-04-04T03:27:13.298Z,28.03
2019-04-04T03:29:42.377Z,30.30
2019-04-04T03:32:14.593Z,28.17
2019-04-04T03:34:47.877Z,25.23
2019-04-04T03:37:13.802Z,29.90
2019-04-04T03:39:42.943Z,28.37
2019-04-04T03:42:11.996Z,27.60
2019-04-04T03:44:41.192Z,24.37
2019-04-04T03:47:11.267Z,27.07
2019-04-04T03:49:40.400Z,26.83
2019-04-04T03:52:11.305Z,31.90
2019-04-04T03:54:40.530Z,30.20
2019-04-04T03:57:12.245Z,34.47
2019-04-04T03:59:40.563Z,33.77
2019-04-04T04:02:09.634Z,29.10
2019-04-04T04:04:38.859Z,37.27
2019-04-04T04:07:08.342Z,30.63
2019-04-04T04:09:37.652Z,28.97
2019-04-04T04:12:10.047Z,33.07
2019-04-04T04:14:37.763Z,31.00
2019-04-04T04:17:09.145Z,31.73
2019-04-04T04:19:37.981Z,26.80
2019-04-04T04:22:07.019Z,31.73
2019-04-04T04:24:36.832Z,33.90
2019-04-04T04:27:06.208Z,28.10
2019-04-04T04:29:35.301Z,31.47
2019-04-04T04:32:04.404Z,32.63
2019-04-04T04:34:34.352Z,30.20
2019-04-04T04:37:03.744Z,29.70
2019-04-04T04:39:38.208Z,29.33
2019-04-04T04:42:04.378Z,26.30
2019-04-04T04:44:37.848Z,30.60
2019-04-04T04:47:04.504Z,23.53
2019-04-04T04:49:35.634Z,32.23
2019-04-04T04:52:04.509Z,32.40
2019-04-04T04:54:33.532Z,25.90
2019-04-04T04:57:04.039Z,25.33
2019-04-04T04:59:33.241Z,27.20
2019-04-04T05:02:02.703Z,32.43
2019-04-04T05:04:31.835Z,29.83
2019-04-04T05:07:01.251Z,29.47
2019-04-04T05:09:30.347Z,30.83
2019-04-04T05:11:59.847Z,35.17
2019-04-04T05:14:29.796Z,28.23
2019-04-04T05:16:59.883Z,32.77
2019-04-04T05:19:29.216Z,30.27
2019-04-04T05:21:58.607Z,32.53
2019-04-04T05:24:27.579Z,36.80
2019-04-04T05:26:57.073Z,28.53
2019-04-04T05:29:26.369Z,29.20
2019-04-04T05:31:55.915Z,26.20
2019-04-04T05:34:25.295Z,26.73
2019-04-04T05:36:54.533Z,25.27
2019-04-04T05:39:25.162Z,29.60
2019-04-04T05:41:54.510Z,27.67
2019-04-04T05:44:23.588Z,31.00
2019-04-04T05:46:52.708Z,29.87
2019-04-04T05:49:21.886Z,34.00
2019-04-04T05:51:51.178Z,25.43
2019-04-04T05:54:20.728Z,31.87
2019-04-04T05:56:50.182Z,25.50
2019-04-04T05:59:19.287Z,26.17
2019-04-04T06:01:48.504Z,23.80
2019-04-04T06:04:19.683Z,23.37
2019-04-04T06:06:48.135Z,26.03
2019-04-04T06:09:18.136Z,25.40
2019-04-04T06:11:48.741Z,24.77
2019-04-04T06:14:20.606Z,28.83
2019-04-04T06:16:48.998Z,27.87
2019-04-04T06:19:18.166Z,24.80
2019-04-04T06:21:47.890Z,24.20
2019-04-04T06:24:18.406Z,23.20
2019-04-04T06:26:48.009Z,22.67
2019-04-04T06:29:17.976Z,22.87
2019-04-04T06:31:47.555Z,22.53
2019-04-04T06:34:17.328Z,26.20
2019-04-04T06:36:47.009Z,23.80
2019-04-04T06:39:17.262Z,24.67
2019-04-04T06:41:46.464Z,22.47
2019-04-04T06:44:15.879Z,26.07
2019-04-04T06:46:45.423Z,24.00
2019-04-04T06:49:14.460Z,25.33
2019-04-04T06:51:46.090Z,23.50
2019-04-04T06:54:14.828Z,23.33
2019-04-04T06:56:44.219Z,22.10
2019-04-04T06:59:13.309Z,22.53
2019-04-04T07:01:42.400Z,20.37
2019-04-04T07:04:31.911Z,20.30
2019-04-04T07:07:01.188Z,21.33
2019-04-04T07:09:30.277Z,17.43
2019-04-04T07:11:59.301Z,19.53
2019-04-04T07:14:35.139Z,17.70
2019-04-04T07:17:00.109Z,26.30
2019-04-04T07:19:29.639Z,17.90
2019-04-04T07:21:58.709Z,18.27
2019-04-04T07:24:29.054Z,17.07
2019-04-04T07:26:59.213Z,16.67
2019-04-04T07:29:28.264Z,21.00
2019-04-04T07:31:57.421Z,19.00
2019-04-04T07:34:27.357Z,16.47
2019-04-04T07:36:58.261Z,21.20
2019-04-04T07:39:27.377Z,19.90
2019-04-04T07:41:56.384Z,19.03
2019-04-04T07:44:25.531Z,21.83
2019-04-04T07:46:54.560Z,20.00
2019-04-04T07:49:23.945Z,18.10
2019-04-04T07:51:53.280Z,17.93
2019-04-04T07:54:22.452Z,19.50
2019-04-04T07:56:51.461Z,22.47
2019-04-04T07:59:20.630Z,20.70
2019-04-04T08:01:51.422Z,14.77
2019-04-04T08:04:21.420Z,14.37
2019-04-04T08:06:50.775Z,16.43
2019-04-04T08:09:20.208Z,14.80
2019-04-04T08:11:49.907Z,22.23
2019-04-04T08:14:19.395Z,14.80
2019-04-04T08:16:49.028Z,20.57
2019-04-04T08:19:18.405Z,16.27
2019-04-04T08:21:47.687Z,16.87
2019-04-04T08:24:18.717Z,18.83
2019-04-04T08:26:47.735Z,17.53
2019-04-04T08:29:17.537Z,16.73
2019-04-04T08:31:46.962Z,17.53
2019-04-04T08:34:16.370Z,18.70
2019-04-04T08:36:45.434Z,15.93
2019-04-04T08:39:14.546Z,17.50
2019-04-04T08:41:44.257Z,19.10
2019-04-04T08:44:13.775Z,14.70
2019-04-04T08:46:43.185Z,20.03
2019-04-04T08:49:12.836Z,17.80
2019-04-04T08:51:42.524Z,15.57
2019-04-04T08:54:11.907Z,16.27
2019-04-04T08:56:40.963Z,14.20
2019-04-04T08:59:10.029Z,21.00
2019-04-04T09:01:39.099Z,19.53
2019-04-04T09:04:08.588Z,18.60
2019-04-04T09:06:37.834Z,20.80
2019-04-04T09:09:07.047Z,17.73
2019-04-04T09:11:36.153Z,18.20
2019-04-04T09:14:05.230Z,17.47
2019-04-04T09:16:34.448Z,18.80
2019-04-04T09:19:03.538Z,16.27
2019-04-04T09:21:32.961Z,15.87
2019-04-04T09:24:02.562Z,15.60
2019-04-04T09:26:31.846Z,17.60
2019-04-04T09:29:01.045Z,17.27
2019-04-04T09:31:30.199Z,13.63
2019-04-04T09:33:59.206Z,14.27
2019-04-04T09:36:28.717Z,14.30
2019-04-04T09:38:58.241Z,14.23
2019-04-04T09:41:27.415Z,16.93
2019-04-04T09:43:56.496Z,13.47
2019-04-04T09:46:25.929Z,13.30
2019-04-04T09:48:55.105Z,16.70
2019-04-04T09:51:24.604Z,16.37
2019-04-04T09:53:54.126Z,23.43
2019-04-04T09:56:23.235Z,15.50
2019-04-04T09:58:54.933Z,16.90
2019-04-04T10:01:28.002Z,19.83
2019-04-04T10:03:57.337Z,12.83
2019-04-04T10:06:26.665Z,21.20
2019-04-04T10:08:56.046Z,15.43
2019-04-04T10:11:25.664Z,14.53
2019-04-04T10:13:54.850Z,12.67
2019-04-04T10:16:23.939Z,13.30
2019-04-04T10:18:53.384Z,13.07
2019-04-04T10:21:22.563Z,15.53
2019-04-04T10:23:52.143Z,13.23
2019-04-04T10:26:21.452Z,15.73
2019-04-04T10:28:50.558Z,13.50
2019-04-04T10:31:20.170Z,14.70
2019-04-04T10:33:49.230Z,16.87
2019-04-04T10:36:18.539Z,17.80
2019-04-04T10:38:47.952Z,18.60
2019-04-04T10:41:17.774Z,16.57
2019-04-04T10:43:46.867Z,20.57
2019-04-04T10:46:16.319Z,17.70
2019-04-04T10:48:45.470Z,17.57
2019-04-04T10:51:14.528Z,18.27
2019-04-04T10:53:43.650Z,18.00
2019-04-04T10:56:13.058Z,17.60
2019-04-04T10:58:42.540Z,19.00
2019-04-04T11:01:12.060Z,18.73
2019-04-04T11:03:41.067Z,21.53
2019-04-04T11:06:10.840Z,17.73
2019-04-04T11:08:40.074Z,17.57
2019-04-04T11:11:09.034Z,19.23
2019-04-04T11:13:38.488Z,18.80
2019-04-04T11:16:07.520Z,17.80
2019-04-04T11:18:36.953Z,19.10
2019-04-04T11:21:06.113Z,20.60
2019-04-04T11:23:35.725Z,19.37
2019-04-04T11:26:05.661Z,16.43
2019-04-04T11:28:34.747Z,21.13
2019-04-04T11:31:04.432Z,17.73
2019-04-04T11:33:33.761Z,21.03
2019-04-04T11:36:03.078Z,18.70
2019-04-04T11:38:32.575Z,20.33
2019-04-04T11:41:01.738Z,18.20
2019-04-04T11:43:31.268Z,15.77
2019-04-04T11:46:00.414Z,19.73
2019-04-04T11:48:29.533Z,19.27
2019-04-04T11:50:59.136Z,19.57
2019-04-04T11:53:28.564Z,15.63
2019-04-04T11:55:57.964Z,18.00
2019-04-04T11:58:27.376Z,18.17
2019-04-04T12:00:57.469Z,15.53
2019-04-04T12:03:26.554Z,25.00
2019-04-04T12:05:55.752Z,21.10
2019-04-04T12:08:24.845Z,17.90
2019-04-04T12:10:54.039Z,19.60
2019-04-04T12:13:23.553Z,19.90
2019-04-04T12:15:52.689Z,23.63
2019-04-04T12:18:22.567Z,18.47
2019-04-04T12:20:51.686Z,21.67
2019-04-04T12:23:21.758Z,22.00
2019-04-04T12:25:51.160Z,19.33
2019-04-04T12:28:20.334Z,21.27
2019-04-04T12:30:49.459Z,18.77
2019-04-04T12:33:18.649Z,20.20
2019-04-04T12:35:47.867Z,19.13
2019-04-04T12:38:17.248Z,18.20
2019-04-04T12:40:46.365Z,19.20
2019-04-04T12:43:15.271Z,17.23
2019-04-04T12:45:44.601Z,18.63
2019-04-04T12:48:13.684Z,20.57
2019-04-04T12:50:42.738Z,15.63
2019-04-04T12:53:12.153Z,21.33
2019-04-04T12:55:41.781Z,22.00
2019-04-04T12:58:11.125Z,17.57
2019-04-04T13:00:40.432Z,20.80
2019-04-04T13:03:09.954Z,15.47
2019-04-04T13:05:38.945Z,19.13
2019-04-04T13:08:08.340Z,14.90
2019-04-04T13:10:37.813Z,14.30
2019-04-04T13:13:07.003Z,19.60
2019-04-04T13:15:36.006Z,18.40
2019-04-04T13:18:05.128Z,21.57
2019-04-04T13:20:35.496Z,28.03
2019-04-04T13:23:04.855Z,21.37
2019-04-04T13:25:34.431Z,20.53
2019-04-04T13:28:03.940Z,22.23
2019-04-04T13:30:33.161Z,20.43
2019-04-04T13:33:02.299Z,19.90
2019-04-04T13:35:31.957Z,19.60
2019-04-04T13:38:01.315Z,20.43
2019-04-04T13:40:31.093Z,22.03
2019-04-04T13:43:00.377Z,19.53
2019-04-04T13:45:29.919Z,17.70
2019-04-04T13:47:59.201Z,19.20
2019-04-04T13:50:28.646Z,22.70
2019-04-04T13:52:58.104Z,19.07
2019-04-04T13:55:27.909Z,14.53
2019-04-04T13:57:57.366Z,17.20
2019-04-04T14:00:26.593Z,16.53
2019-04-04T14:02:57.300Z,15.70
2019-04-04T14:05:27.032Z,18.97
2019-04-04T14:07:56.140Z,16.20
2019-04-04T14:10:25.194Z,15.10
2019-04-04T14:12:54.705Z,18.73
2019-04-04T14:15:23.792Z,17.00
2019-04-04T14:17:53.422Z,17.17
2019-04-04T14:20:23.137Z,18.77
2019-04-04T14:22:52.247Z,14.90
2019-04-04T14:25:22.007Z,17.03
2019-04-04T14:27:51.748Z,18.70
2019-04-04T14:30:20.950Z,16.77
2019-04-04T14:32:50.110Z,17.43
2019-04-04T14:35:19.324Z,20.67
2019-04-04T14:37:48.700Z,16.83
2019-04-04T14:40:17.799Z,26.60
2019-04-04T14:42:47.358Z,21.60
2019-04-04T14:45:16.512Z,20.33
2019-04-04T14:47:46.204Z,25.10
2019-04-04T14:50:15.714Z,18.90
2019-04-04T14:52:45.210Z,26.20
2019-04-04T14:55:17.779Z,27.17
2019-04-04T14:57:46.304Z,23.73
2019-04-04T15:00:16.881Z,24.00
2019-04-04T15:02:46.397Z,22.27
2019-04-04T15:05:15.784Z,25.40
2019-04-04T15:07:45.411Z,29.50
2019-04-04T15:10:15.278Z,32.53
2019-04-04T15:12:45.235Z,26.67
2019-04-04T15:15:14.652Z,28.53
2019-04-04T15:17:43.934Z,30.20
2019-04-04T15:20:13.343Z,27.60
2019-04-04T15:22:42.640Z,26.27
2019-04-04T15:25:11.831Z,20.37
2019-04-04T15:27:41.292Z,17.83
2019-04-04T15:30:10.653Z,25.10
2019-04-04T15:32:39.750Z,18.10
2019-04-04T15:35:09.110Z,16.83
2019-04-04T15:37:38.234Z,17.73
2019-04-04T15:40:07.652Z,16.23
2019-04-04T15:42:36.715Z,22.03
2019-04-04T15:45:06.017Z,17.60
2019-04-04T15:47:35.570Z,17.53
2019-04-04T15:50:05.181Z,17.43
2019-04-04T15:52:34.555Z,19.63
2019-04-04T15:55:03.640Z,21.30
2019-04-04T15:57:35.368Z,17.63
2019-04-04T16:00:04.808Z,19.57
2019-04-04T16:02:35.182Z,18.30
2019-04-04T16:05:05.319Z,17.50
2019-04-04T16:07:34.312Z,19.43
2019-04-04T16:10:03.721Z,17.40
2019-04-04T16:12:33.641Z,17.70
2019-04-04T16:15:03.345Z,26.93
2019-04-04T16:17:32.721Z,15.97
2019-04-04T16:20:02.755Z,18.17
2019-04-04T16:22:32.512Z,15.67
2019-04-04T16:25:02.499Z,18.70
2019-04-04T16:27:31.563Z,18.73
2019-04-04T16:30:01.087Z,20.17
2019-04-04T16:32:30.687Z,21.80
2019-04-04T16:34:59.844Z,20.17
2019-04-04T16:37:29.165Z,21.60
2019-04-04T16:40:08.207Z,19.20
2019-04-04T16:42:29.176Z,19.23
2019-04-04T16:44:58.305Z,22.40
2019-04-04T16:47:27.223Z,17.80
2019-04-04T16:49:56.148Z,19.30
2019-04-04T16:52:25.277Z,17.07
2019-04-04T16:54:54.778Z,16.43
2019-04-04T16:57:23.904Z,22.80
2019-04-04T16:59:53.074Z,21.07
2019-04-04T17:02:22.299Z,20.37
2019-04-04T17:04:51.927Z,19.80
2019-04-04T17:07:21.180Z,20.63
2019-04-04T17:09:50.633Z,25.10
2019-04-04T17:12:19.671Z,22.50
2019-04-04T17:14:48.811Z,22.17
2019-04-04T17:17:17.989Z,23.43
2019-04-04T17:19:47.414Z,22.20
2019-04-04T17:22:16.966Z,26.87
2019-04-04T17:24:46.214Z,22.00
2019-04-04T17:27:15.367Z,23.60
2019-04-04T17:29:44.563Z,22.80
2019-04-04T17:32:13.850Z,25.23
2019-04-04T17:34:43.300Z,25.20
2019-04-04T17:37:12.836Z,23.83
2019-04-04T17:39:42.602Z,22.70
2019-04-04T17:42:11.767Z,24.20
2019-04-04T17:44:41.406Z,33.47
2019-04-04T17:47:11.350Z,33.30
2019-04-04T17:49:41.037Z,28.10
2019-04-04T17:52:10.150Z,29.43
2019-04-04T17:54:39.555Z,29.73
2019-04-04T17:57:09.656Z,30.90
2019-04-04T17:59:38.737Z,33.37
2019-04-04T18:02:07.926Z,35.37
2019-04-04T18:04:47.762Z,36.13
2019-04-04T18:07:07.758Z,32.07
2019-04-04T18:09:36.834Z,33.03
2019-04-04T18:12:05.936Z,31.57
2019-04-04T18:14:35.118Z,31.80
2019-04-04T18:17:04.741Z,32.83
2019-04-04T18:19:34.217Z,33.03
2019-04-04T18:22:03.425Z,37.37
2019-04-04T18:24:32.823Z,35.77
2019-04-04T18:27:01.754Z,38.30
2019-04-04T18:29:30.811Z,30.83
2019-04-04T18:32:00.373Z,30.00
2019-04-04T18:34:29.308Z,31.53
2019-04-04T18:36:58.428Z,33.83
2019-04-04T18:39:27.370Z,38.33
2019-04-04T18:41:56.512Z,35.43
2019-04-04T18:44:25.601Z,29.33
2019-04-04T18:46:55.493Z,28.87
2019-04-04T18:49:25.017Z,29.97
2019-04-04T18:51:54.499Z,27.20
2019-04-04T18:54:23.606Z,28.70
2019-04-04T18:56:53.099Z,33.50
2019-04-04T18:59:22.192Z,34.30
2019-04-04T19:01:51.740Z,37.40
2019-04-04T19:04:20.999Z,35.40
2019-04-04T19:06:50.848Z,36.70
2019-04-04T19:09:19.895Z,40.10
2019-04-04T19:11:49.356Z,37.50
2019-04-04T19:14:18.493Z,36.00
2019-04-04T19:16:47.994Z,34.43
2019-04-04T19:19:17.109Z,34.87
2019-04-04T19:21:46.179Z,40.00
2019-04-04T19:24:15.333Z,37.33
2019-04-04T19:26:44.365Z,36.27
2019-04-04T19:29:13.671Z,35.10
2019-04-04T19:31:42.816Z,31.60
2019-04-04T19:34:11.936Z,33.60
2019-04-04T19:36:41.996Z,39.03
2019-04-04T19:39:18.269Z,34.97
2019-04-04T19:41:47.689Z,37.83
2019-04-04T19:44:16.843Z,37.37
2019-04-04T19:46:45.982Z,36.30
2019-04-04T19:49:15.074Z,44.43
2019-04-04T19:51:44.453Z,34.00
2019-04-04T19:54:13.638Z,35.10
2019-04-04T19:56:43.075Z,40.30
2019-04-04T19:59:12.214Z,41.10
2019-04-04T20:01:42.339Z,40.37
2019-04-04T20:04:11.871Z,37.27
2019-04-04T20:06:40.969Z,33.80
2019-04-04T20:09:10.234Z,37.23
2019-04-04T20:11:39.432Z,34.20
2019-04-04T20:14:08.526Z,34.87
2019-04-04T20:16:37.643Z,37.70
2019-04-04T20:19:06.819Z,39.67
2019-04-04T20:21:35.954Z,35.10
2019-04-04T20:24:05.411Z,40.33
2019-04-04T20:26:35.268Z,32.57
2019-04-04T20:29:04.768Z,33.77
2019-04-04T20:31:34.421Z,34.30
2019-04-04T20:34:05.942Z,35.00
2019-04-04T20:36:34.497Z,32.43
2019-04-04T20:39:04.558Z,35.80
2019-04-04T20:41:33.893Z,43.67
2019-04-04T20:44:03.108Z,38.67
2019-04-04T20:46:32.335Z,37.33
2019-04-04T20:49:01.858Z,38.93
2019-04-04T20:51:30.903Z,34.77
2019-04-04T20:54:00.007Z,39.03
2019-04-04T20:56:29.811Z,37.50
2019-04-04T20:58:59.226Z,36.17
2019-04-04T21:01:28.886Z,38.67
2019-04-04T21:03:57.979Z,39.53
2019-04-04T21:06:27.577Z,34.23
2019-04-04T21:08:56.981Z,40.40
2019-04-04T21:11:26.488Z,43.20
2019-04-04T21:13:56.796Z,37.70
2019-04-04T21:16:26.122Z,35.33
2019-04-04T21:18:55.371Z,37.97
2019-04-04T21:21:24.334Z,39.10
2019-04-04T21:23:53.772Z,37.00
2019-04-04T21:26:23.637Z,37.30
2019-04-04T21:28:52.942Z,36.70
2019-04-04T21:31:22.111Z,35.60
2019-04-04T21:33:51.717Z,40.90
2019-04-04T21:36:20.919Z,33.30
2019-04-04T21:38:50.360Z,31.20
2019-04-04T21:41:19.406Z,32.13
2019-04-04T21:43:49.178Z,36.93
2019-04-04T21:46:18.341Z,37.50
2019-04-04T21:48:47.722Z,31.97
2019-04-04T21:51:16.787Z,33.30
2019-04-04T21:53:46.145Z,36.03
2019-04-04T21:56:15.402Z,36.00
2019-04-04T21:58:44.907Z,33.37
2019-04-04T22:01:14.397Z,31.70
2019-04-04T22:03:43.760Z,33.80
2019-04-04T22:06:12.806Z,33.83
2019-04-04T22:08:42.342Z,34.57
2019-04-04T22:11:11.535Z,38.63
2019-04-04T22:13:40.941Z,43.90
2019-04-04T22:16:10.011Z,38.93
2019-04-04T22:18:39.131Z,38.67
2019-04-04T22:21:08.612Z,40.97
2019-04-04T22:23:38.029Z,49.03
2019-04-04T22:26:07.196Z,41.00
2019-04-04T22:28:36.312Z,42.23
2019-04-04T22:31:05.632Z,34.67
2019-04-04T22:33:34.724Z,35.73
2019-04-04T22:36:03.909Z,35.53
2019-04-04T22:38:33.297Z,37.53
2019-04-04T22:41:02.393Z,35.63
2019-04-04T22:43:31.715Z,37.87
2019-04-04T22:46:01.114Z,38.37
2019-04-04T22:48:30.186Z,40.90
2019-04-04T22:50:59.302Z,38.70
2019-04-04T22:53:28.512Z,40.60
2019-04-04T22:55:58.266Z,38.50
2019-04-04T22:58:28.932Z,37.77
2019-04-04T23:00:58.212Z,46.50
2019-04-04T23:03:29.018Z,48.73
2019-04-04T23:05:58.851Z,47.43
2019-04-04T23:08:28.255Z,44.77
2019-04-04T23:10:57.372Z,51.77
2019-04-04T23:13:26.574Z,46.77
2019-04-04T23:15:55.656Z,47.43
2019-04-04T23:18:25.036Z,51.37
2019-04-04T23:20:54.460Z,46.20
2019-04-04T23:23:23.541Z,47.90
2019-04-04T23:25:52.644Z,46.37
2019-04-04T23:28:22.134Z,45.00
2019-04-04T23:30:51.238Z,45.43
2019-04-04T23:33:20.740Z,41.23
2019-04-04T23:35:49.856Z,38.63
2019-04-04T23:38:18.960Z,39.13
2019-04-04T23:40:48.549Z,42.77
2019-04-04T23:43:17.631Z,43.93
2019-04-04T23:45:47.165Z,41.50
2019-04-04T23:48:16.562Z,42.67
2019-04-04T23:50:46.059Z,43.27
2019-04-04T23:53:15.171Z,37.93
2019-04-04T23:55:44.345Z,35.50
2019-04-04T23:58:13.414Z,41.23
